Time,TemperatureF,DewpointF,PressureIn,WindDirection,WindDirectionDegrees,WindSpeedMPH,WindSpeedGustMPH,Humidity,HourlyPrecipIn,Conditions,Clouds,dailyrainin,SolarRadiationWatts/m^2,SoftwareType,DateUTC
2013-11-15 00:01:00,64.0,33.0,-100.00,NNE,23,2.0,3.0,31,0.00,,,0.00,0.000000,,2013-11-15 08:01:00,
2013-11-15 00:11:00,64.0,33.0,-100.00,NNE,23,2.0,3.0,31,0.00,,,0.00,0.000000,,2013-11-15 08:11:00,
2013-11-15 00:21:00,64.0,33.0,-100.00,NNE,23,2.0,3.0,31,0.00,,,0.00,0.000000,,2013-11-15 08:21:00,
2013-11-15 00:52:00,64.0,34.0,-100.00,North,7,1.0,3.0,32,0.00,,,0.00,0.000000,,2013-11-15 08:52:00,
2013-11-15 01:02:00,64.0,34.0,-100.00,North,7,1.0,3.0,32,0.00,,,0.00,0.000000,,2013-11-15 09:02:00,
2013-11-15 01:11:00,64.0,34.0,-100.00,North,7,1.0,3.0,32,0.00,,,0.00,0.000000,,2013-11-15 09:11:00,
2013-11-15 01:22:00,64.0,34.0,-100.00,North,7,1.0,3.0,32,0.00,,,0.00,0.000000,,2013-11-15 09:22:00,
2013-11-15 01:53:00,63.0,41.0,-100.00,SW,235,1.0,4.0,45,0.00,,,0.00,0.000000,,2013-11-15 09:53:00,
2013-11-15 02:03:00,63.0,41.0,-100.00,SW,235,1.0,4.0,45,0.00,,,0.00,0.000000,,2013-11-15 10:03:00,
2013-11-15 02:12:00,63.0,41.0,-100.00,SW,235,1.0,4.0,45,0.00,,,0.00,0.000000,,2013-11-15 10:12:00,
2013-11-15 02:22:00,63.0,41.0,-100.00,SW,235,1.0,4.0,45,0.00,,,0.00,0.000000,,2013-11-15 10:22:00,
2013-11-15 02:52:00,64.0,42.0,-100.00,South,186,3.0,4.0,45,0.00,,,0.00,0.000000,,2013-11-15 10:52:00,
2013-11-15 03:02:00,64.0,42.0,-100.00,South,186,3.0,4.0,45,0.00,,,0.00,0.000000,,2013-11-15 11:02:00,
2013-11-15 03:12:00,64.0,42.0,-100.00,South,186,3.0,4.0,45,0.00,,,0.00,0.000000,,2013-11-15 11:12:00,
2013-11-15 03:22:00,64.0,42.0,-100.00,South,186,3.0,4.0,45,0.00,,,0.00,0.000000,,2013-11-15 11:22:00,
2013-11-15 03:52:00,63.0,41.0,-100.00,WNW,290,1.0,4.0,45,0.00,,,0.00,0.000000,,2013-11-15 11:52:00,
2013-11-15 04:02:00,63.0,41.0,-100.00,WNW,290,1.0,4.0,45,0.00,,,0.00,0.000000,,2013-11-15 12:02:00,
2013-11-15 04:11:00,63.0,41.0,-100.00,WNW,290,1.0,4.0,45,0.00,,,0.00,0.000000,,2013-11-15 12:11:00,
2013-11-15 04:21:00,63.0,41.0,-100.00,WNW,290,1.0,4.0,45,0.00,,,0.00,0.000000,,2013-11-15 12:21:00,
2013-11-15 04:52:00,63.0,46.0,-100.00,WSW,246,3.0,4.0,54,0.00,,,0.00,0.000000,,2013-11-15 12:52:00,
2013-11-15 05:01:00,63.0,46.0,-100.00,WSW,246,3.0,4.0,54,0.00,,,0.00,0.000000,,2013-11-15 13:01:00,
2013-11-15 05:11:00,63.0,46.0,-100.00,WSW,246,3.0,4.0,54,0.00,,,0.00,0.000000,,2013-11-15 13:11:00,
2013-11-15 05:21:00,63.0,46.0,-100.00,WSW,246,3.0,4.0,54,0.00,,,0.00,0.000000,,2013-11-15 13:21:00,
2013-11-15 05:52:00,63.0,43.0,-100.00,NNE,17,2.0,4.0,48,0.00,,,0.00,0.000000,,2013-11-15 13:52:00,
2013-11-15 06:01:00,63.0,43.0,-100.00,NNE,17,2.0,4.0,48,0.00,,,0.00,0.000000,,2013-11-15 14:01:00,
2013-11-15 06:11:00,63.0,43.0,-100.00,NNE,17,2.0,4.0,48,0.00,,,0.00,0.000000,,2013-11-15 14:11:00,
2013-11-15 06:21:00,63.0,43.0,-100.00,NNE,17,2.0,4.0,48,0.00,,,0.00,0.000000,,2013-11-15 14:21:00,
2013-11-15 06:52:00,63.0,39.0,-100.00,North,357,3.0,7.0,41,0.00,,,0.00,1.000000,,2013-11-15 14:52:00,
2013-11-15 07:02:00,63.0,39.0,-100.00,North,357,3.0,7.0,41,0.00,,,0.00,1.000000,,2013-11-15 15:02:00,
2013-11-15 07:11:00,63.0,39.0,-100.00,North,357,3.0,7.0,41,0.00,,,0.00,1.000000,,2013-11-15 15:11:00,
2013-11-15 07:53:00,64.0,44.0,-100.00,WSW,243,4.0,6.0,49,0.00,,,0.00,37.000000,,2013-11-15 15:53:00,
2013-11-15 08:03:00,64.0,44.0,-100.00,WSW,243,4.0,6.0,49,0.00,,,0.00,37.000000,,2013-11-15 16:03:00,
2013-11-15 08:12:00,64.0,44.0,-100.00,WSW,243,4.0,6.0,49,0.00,,,0.00,37.000000,,2013-11-15 16:12:00,
2013-11-15 08:23:00,64.0,44.0,-100.00,WSW,243,4.0,6.0,49,0.00,,,0.00,37.000000,,2013-11-15 16:23:00,
2013-11-15 08:53:00,66.0,46.0,-100.00,ESE,113,3.0,4.0,49,0.00,,,0.00,98.000000,,2013-11-15 16:53:00,
2013-11-15 09:03:00,66.0,46.0,-100.00,ESE,113,3.0,4.0,49,0.00,,,0.00,98.000000,,2013-11-15 17:03:00,
2013-11-15 09:12:00,66.0,46.0,-100.00,ESE,113,3.0,4.0,49,0.00,,,0.00,98.000000,,2013-11-15 17:12:00,
2013-11-15 09:22:00,66.0,46.0,-100.00,ESE,113,3.0,4.0,49,0.00,,,0.00,98.000000,,2013-11-15 17:22:00,
2013-11-15 09:52:00,70.0,50.0,-100.00,NNW,348,1.0,5.0,49,0.00,,,0.00,229.000000,,2013-11-15 17:52:00,
2013-11-15 10:02:00,70.0,50.0,-100.00,NNW,348,1.0,5.0,49,0.00,,,0.00,229.000000,,2013-11-15 18:02:00,
2013-11-15 10:12:00,70.0,50.0,-100.00,NNW,348,1.0,5.0,49,0.00,,,0.00,229.000000,,2013-11-15 18:12:00,
2013-11-15 10:22:00,70.0,50.0,-100.00,NNW,348,1.0,5.0,49,0.00,,,0.00,229.000000,,2013-11-15 18:22:00,
2013-11-15 10:52:00,76.0,53.0,-100.00,ENE,75,2.0,6.0,45,0.00,,,0.00,485.000000,,2013-11-15 18:52:00,
2013-11-15 11:02:00,76.0,53.0,-100.00,ENE,75,2.0,6.0,45,0.00,,,0.00,485.000000,,2013-11-15 19:02:00,
2013-11-15 11:12:00,76.0,53.0,-100.00,ENE,75,2.0,6.0,45,0.00,,,0.00,485.000000,,2013-11-15 19:12:00,
2013-11-15 11:21:00,76.0,53.0,-100.00,ENE,75,2.0,6.0,45,0.00,,,0.00,485.000000,,2013-11-15 19:21:00,
2013-11-15 11:52:00,80.0,54.0,-100.00,East,99,3.0,7.0,41,0.00,,,0.00,618.000000,,2013-11-15 19:52:00,
2013-11-15 12:01:00,80.0,54.0,-100.00,East,99,3.0,7.0,41,0.00,,,0.00,618.000000,,2013-11-15 20:01:00,
2013-11-15 12:12:00,80.0,54.0,-100.00,East,99,3.0,7.0,41,0.00,,,0.00,618.000000,,2013-11-15 20:12:00,
2013-11-15 12:22:00,80.0,54.0,-100.00,East,99,3.0,7.0,41,0.00,,,0.00,618.000000,,2013-11-15 20:22:00,
2013-11-15 12:52:00,83.0,48.0,-100.00,SSW,196,13.0,24.0,30,0.00,,,0.00,719.000000,,2013-11-15 20:52:00,
2013-11-15 13:02:00,83.0,48.0,-100.00,SSW,196,13.0,24.0,30,0.00,,,0.00,719.000000,,2013-11-15 21:02:00,
2013-11-15 13:12:00,83.0,48.0,-100.00,SSW,196,13.0,24.0,30,0.00,,,0.00,719.000000,,2013-11-15 21:12:00,
2013-11-15 13:21:00,83.0,48.0,-100.00,SSW,196,13.0,24.0,30,0.00,,,0.00,719.000000,,2013-11-15 21:21:00,
2013-11-15 13:54:00,85.0,45.0,-100.00,SSW,202,11.0,22.0,25,0.00,,,0.00,649.000000,,2013-11-15 21:54:00,
2013-11-15 14:03:00,85.0,45.0,-100.00,SSW,202,11.0,22.0,25,0.00,,,0.00,649.000000,,2013-11-15 22:03:00,
2013-11-15 14:14:00,85.0,45.0,-100.00,SSW,202,11.0,22.0,25,0.00,,,0.00,649.000000,,2013-11-15 22:14:00,
2013-11-15 14:23:00,85.0,45.0,-100.00,SSW,202,11.0,22.0,25,0.00,,,0.00,649.000000,,2013-11-15 22:23:00,
2013-11-15 14:53:00,85.0,46.0,-100.00,South,182,11.0,19.0,26,0.00,,,0.00,498.000000,,2013-11-15 22:53:00,
2013-11-15 15:02:00,85.0,46.0,-100.00,South,182,11.0,19.0,26,0.00,,,0.00,498.000000,,2013-11-15 23:02:00,
2013-11-15 15:12:00,85.0,46.0,-100.00,South,182,11.0,19.0,26,0.00,,,0.00,498.000000,,2013-11-15 23:12:00,
2013-11-15 15:22:00,85.0,46.0,-100.00,South,182,11.0,19.0,26,0.00,,,0.00,498.000000,,2013-11-15 23:22:00,
2013-11-15 15:52:00,82.0,46.0,-100.00,South,188,11.0,21.0,28,0.00,,,0.00,273.000000,,2013-11-15 23:52:00,
2013-11-15 16:03:00,82.0,46.0,-100.00,South,188,11.0,21.0,28,0.00,,,0.00,273.000000,,2013-11-16 00:03:00,
2013-11-15 16:11:00,82.0,46.0,-100.00,South,188,11.0,21.0,28,0.00,,,0.00,273.000000,,2013-11-16 00:11:00,
2013-11-15 16:21:00,82.0,46.0,-100.00,South,188,11.0,21.0,28,0.00,,,0.00,273.000000,,2013-11-16 00:21:00,
2013-11-15 16:52:00,77.0,42.0,-100.00,West,281,13.0,19.0,29,0.00,,,0.00,66.000000,,2013-11-16 00:52:00,
2013-11-15 17:01:00,77.0,42.0,-100.00,West,281,13.0,19.0,29,0.00,,,0.00,66.000000,,2013-11-16 01:01:00,
2013-11-15 17:11:00,77.0,42.0,-100.00,West,281,13.0,19.0,29,0.00,,,0.00,66.000000,,2013-11-16 01:11:00,
2013-11-15 17:21:00,77.0,42.0,-100.00,West,281,13.0,19.0,29,0.00,,,0.00,66.000000,,2013-11-16 01:21:00,
2013-11-15 17:52:00,74.0,44.0,-100.00,West,278,17.0,25.0,34,0.00,,,0.00,2.000000,,2013-11-16 01:52:00,
2013-11-15 18:02:00,74.0,44.0,-100.00,West,278,17.0,25.0,34,0.00,,,0.00,2.000000,,2013-11-16 02:02:00,
2013-11-15 18:11:00,74.0,44.0,-100.00,West,278,17.0,25.0,34,0.00,,,0.00,2.000000,,2013-11-16 02:11:00,
2013-11-15 18:22:00,74.0,44.0,-100.00,West,278,17.0,25.0,34,0.00,,,0.00,2.000000,,2013-11-16 02:22:00,
2013-11-15 18:52:00,71.0,43.0,-100.00,West,267,13.0,23.0,37,0.00,,,0.00,0.000000,,2013-11-16 02:52:00,
2013-11-15 19:02:00,71.0,43.0,-100.00,West,267,13.0,23.0,37,0.00,,,0.00,0.000000,,2013-11-16 03:02:00,
2013-11-15 19:11:00,71.0,43.0,-100.00,West,267,13.0,23.0,37,0.00,,,0.00,0.000000,,2013-11-16 03:11:00,
2013-11-15 19:21:00,71.0,43.0,-100.00,West,267,13.0,23.0,37,0.00,,,0.00,0.000000,,2013-11-16 03:21:00,
2013-11-15 19:55:00,69.0,45.0,-100.00,West,275,12.0,21.0,42,0.00,,,0.00,0.000000,,2013-11-16 03:55:00,
2013-11-15 20:04:00,69.0,45.0,-100.00,West,275,12.0,21.0,42,0.00,,,0.00,0.000000,,2013-11-16 04:04:00,
2013-11-15 20:14:00,69.0,45.0,-100.00,West,275,12.0,21.0,42,0.00,,,0.00,0.000000,,2013-11-16 04:14:00,
2013-11-15 20:23:00,69.0,45.0,-100.00,West,275,12.0,21.0,42,0.00,,,0.00,0.000000,,2013-11-16 04:23:00,
2013-11-15 20:53:00,67.0,44.0,-100.00,West,271,10.0,21.0,44,0.00,,,0.00,0.000000,,2013-11-16 04:53:00,
2013-11-15 21:03:00,67.0,44.0,-100.00,West,271,10.0,21.0,44,0.00,,,0.00,0.000000,,2013-11-16 05:03:00,
2013-11-15 21:13:00,67.0,44.0,-100.00,West,271,10.0,21.0,44,0.00,,,0.00,0.000000,,2013-11-16 05:13:00,
2013-11-15 21:23:00,67.0,44.0,-100.00,West,271,10.0,21.0,44,0.00,,,0.00,0.000000,,2013-11-16 05:23:00,
2013-11-15 21:52:00,65.0,43.0,-100.00,West,280,8.0,17.0,44,0.00,,,0.00,0.000000,,2013-11-16 05:52:00,
2013-11-15 22:02:00,65.0,43.0,-100.00,West,280,8.0,17.0,44,0.00,,,0.00,0.000000,,2013-11-16 06:02:00,
2013-11-15 22:13:00,65.0,43.0,-100.00,West,280,8.0,17.0,44,0.00,,,0.00,0.000000,,2013-11-16 06:13:00,
2013-11-15 22:21:00,65.0,43.0,-100.00,West,280,8.0,17.0,44,0.00,,,0.00,0.000000,,2013-11-16 06:21:00,
2013-11-15 22:52:00,65.0,44.0,-100.00,West,275,15.0,23.0,47,0.00,,,0.00,0.000000,,2013-11-16 06:52:00,
2013-11-15 23:01:00,65.0,44.0,-100.00,West,275,15.0,23.0,47,0.00,,,0.00,0.000000,,2013-11-16 07:01:00,
2013-11-15 23:11:00,65.0,44.0,-100.00,West,275,15.0,23.0,47,0.00,,,0.00,0.000000,,2013-11-16 07:11:00,
2013-11-15 23:22:00,65.0,44.0,-100.00,West,275,15.0,23.0,47,0.00,,,0.00,0.000000,,2013-11-16 07:22:00,
2013-11-15 23:52:00,64.0,44.0,-100.00,SW,232,9.0,19.0,49,0.00,,,0.00,0.000000,,2013-11-16 07:52:00,